Time;durP1;ratioP1;P1;durP2;ratioP2;P2;SDS_P1;SDS_P2;PMS_P1;PMS_P2;Temp;Humidity;BMP_temperature;BMP_pressure;BME280_temperature;BME280_humidity;BME280_pressure;Samples;Min_cycle;Max_cycle;Signal;HPM_P1;HPM_P2
2023/11/10 05:30:24;;;;;;;0.10;0.10;;;8.70;82.70;;;;;;6136415;22;20040;31
2023/11/10 05:32:50;;;;;;;0.10;0.10;;;8.70;82.60;;;;;;4933831;29;20102;-75
2023/11/10 05:35:16;;;;;;;0.10;0.10;;;8.70;82.60;;;;;;4957624;28;20039;-75
2023/11/10 05:37:41;;;;;;;0.10;0.10;;;8.70;82.60;;;;;;4959070;29;20055;-75
2023/11/10 05:40:10;;;;;;;0.10;0.10;;;8.70;82.50;;;;;;4955148;29;20111;-75
2023/11/10 05:42:36;;;;;;;0.10;0.10;;;8.80;82.50;;;;;;4956491;28;20034;-75
2023/11/10 05:45:03;;;;;;;0.10;0.10;;;8.70;82.50;;;;;;4958053;28;20031;-75
2023/11/10 05:47:28;;;;;;;0.10;0.10;;;8.70;82.40;;;;;;4957856;29;20031;-76
2023/11/10 05:49:54;;;;;;;0.10;0.10;;;8.80;82.40;;;;;;4958955;29;20042;-75
2023/11/10 05:52:20;;;;;;;0.10;0.10;;;8.80;82.40;;;;;;4958987;29;20027;-75
2023/11/10 05:54:46;;;;;;;0.10;0.10;;;8.80;82.40;;;;;;4957819;28;20058;-75
2023/11/10 05:57:13;;;;;;;0.10;0.10;;;8.80;82.30;;;;;;4958910;29;20020;-77
2023/11/10 05:59:38;;;;;;;0.10;0.10;;;8.80;82.30;;;;;;4940208;29;20027;-78
2023/11/10 06:02:04;;;;;;;0.10;0.10;;;8.90;82.20;;;;;;4965337;28;20099;-78
2023/11/10 06:04:30;;;;;;;0.10;0.10;;;8.90;82.10;;;;;;4957667;29;20034;-78
2023/11/10 06:06:58;;;;;;;0.10;0.10;;;8.90;82.30;;;;;;4950547;29;20497;-82
2023/11/10 06:09:33;;;;;;;0.10;0.10;;;8.90;82.10;;;;;;4958404;29;20090;-91
2023/11/10 06:11:59;;;;;;;0.08;0.08;;;8.90;82.10;;;;;;4941301;29;20115;-84
2023/11/10 06:14:24;;;;;;;0.10;0.10;;;9.00;82.30;;;;;;4951581;28;20069;-85
2023/11/10 06:16:50;;;;;;;0.15;0.15;;;9.00;82.10;;;;;;4957956;29;20030;-86
2023/11/10 06:19:16;;;;;;;0.10;0.10;;;9.00;82.30;;;;;;4958092;29;20402;-91
2023/11/10 06:21:42;;;;;;;0.10;0.10;;;9.10;82.40;;;;;;4941747;29;20023;-91
2023/11/10 06:24:08;;;;;;;0.10;0.10;;;9.10;82.50;;;;;;4949612;28;20027;-91
2023/11/10 06:26:35;;;;;;;0.20;0.20;;;9.10;82.40;;;;;;4923853;29;20028;-88
2023/11/10 06:29:02;;;;;;;0.10;0.10;;;9.20;82.50;;;;;;4925486;29;20050;-92
2023/11/10 06:31:28;;;;;;;0.10;0.10;;;9.20;82.30;;;;;;4957086;29;20058;-79
2023/11/10 06:33:53;;;;;;;0.05;0.05;;;9.20;82.40;;;;;;4956486;28;20027;-78
2023/11/10 06:36:19;;;;;;;0.10;0.10;;;9.20;82.40;;;;;;4958846;29;20026;-78
2023/11/10 06:38:46;;;;;;;0.10;0.10;;;9.20;82.50;;;;;;4957500;28;20031;-80
2023/11/10 06:41:12;;;;;;;0.10;0.10;;;9.30;82.40;;;;;;4958953;28;20103;-77
2023/11/10 06:43:39;;;;;;;0.10;0.10;;;9.30;82.40;;;;;;4961935;28;20059;-77
2023/11/10 06:46:05;;;;;;;0.10;0.10;;;9.30;82.50;;;;;;4936531;29;20495;-78
2023/11/10 06:48:30;;;;;;;0.10;0.10;;;9.30;82.50;;;;;;4920711;29;20105;-78
2023/11/10 06:50:56;;;;;;;0.10;0.10;;;9.20;82.60;;;;;;4950267;29;20032;-79
2023/11/10 06:53:22;;;;;;;0.10;0.10;;;9.30;82.60;;;;;;4961794;29;20031;-77
2023/11/10 06:55:49;;;;;;;0.10;0.10;;;9.30;82.70;;;;;;4959254;28;20051;-77
2023/11/10 06:58:15;;;;;;;0.10;0.10;;;9.30;82.90;;;;;;4961929;29;20112;-77
2023/11/10 07:00:41;;;;;;;0.10;0.10;;;9.30;82.80;;;;;;4933712;29;20494;-77
2023/11/10 07:03:12;;;;;;;0.10;0.10;;;9.20;82.90;;;;;;4944600;28;20028;-77
2023/11/10 07:05:38;;;;;;;0.10;0.10;;;9.20;82.90;;;;;;4942126;29;20028;-78
2023/11/10 07:08:09;;;;;;;0.10;0.10;;;9.30;83.00;;;;;;4925037;29;20034;-78
2023/11/10 07:10:36;;;;;;;0.10;0.10;;;9.30;83.00;;;;;;4943703;28;20024;-77
2023/11/10 07:13:03;;;;;;;0.10;0.10;;;9.30;83.00;;;;;;4959868;29;20047;-77
2023/11/10 07:15:29;;;;;;;0.10;0.10;;;9.30;82.90;;;;;;4960389;29;20019;-77
2023/11/10 07:17:54;;;;;;;0.10;0.10;;;9.40;83.00;;;;;;4943756;29;20038;-77
2023/11/10 07:20:21;;;;;;;0.10;0.10;;;9.40;82.90;;;;;;4960293;28;20043;-77
2023/11/10 07:22:46;;;;;;;0.10;0.10;;;9.40;82.80;;;;;;4959764;29;20367;-77
2023/11/10 07:25:13;;;;;;;0.00;0.00;;;9.40;82.80;;;;;;4961140;29;20037;-78
2023/11/10 07:27:38;;;;;;;0.10;0.10;;;9.50;82.80;;;;;;4959358;29;20035;-77
2023/11/10 07:30:05;;;;;;;0.03;0.03;;;9.50;82.80;;;;;;4942520;29;20054;-78
2023/11/10 07:32:31;;;;;;;0.10;0.10;;;9.50;82.60;;;;;;4959961;29;20039;-78
2023/11/10 07:34:57;;;;;;;0.10;0.10;;;9.50;82.30;;;;;;4960218;28;20039;-77
2023/11/10 07:37:22;;;;;;;0.10;0.10;;;9.50;82.20;;;;;;4961040;29;20081;-77
2023/11/10 07:39:48;;;;;;;0.10;0.10;;;9.50;82.00;;;;;;4960721;29;20034;-78
2023/11/10 07:42:14;;;;;;;0.10;0.10;;;9.40;82.00;;;;;;4960093;28;20031;-77
2023/11/10 07:44:40;;;;;;;0.10;0.10;;;9.40;81.80;;;;;;4959608;29;20043;-77
2023/11/10 07:47:06;;;;;;;0.10;0.10;;;9.40;81.80;;;;;;4958833;28;20032;-77
2023/11/10 07:49:31;;;;;;;0.10;0.10;;;9.30;81.70;;;;;;4943330;29;20046;-77
2023/11/10 07:51:58;;;;;;;0.10;0.10;;;9.30;81.70;;;;;;4943690;29;20035;-77
2023/11/10 07:54:24;;;;;;;0.10;0.10;;;9.30;81.60;;;;;;4931973;29;20035;-77
2023/11/10 07:56:53;;;;;;;0.10;0.10;;;9.40;81.50;;;;;;4960053;29;20034;-77
2023/11/10 07:59:18;;;;;;;0.10;0.10;;;9.40;81.60;;;;;;4960173;29;20032;-77
2023/11/10 08:01:44;;;;;;;0.10;0.10;;;9.40;81.60;;;;;;4950464;28;20163;-76
2023/11/10 08:04:10;;;;;;;0.10;0.10;;;9.40;81.60;;;;;;4957067;29;20372;-77
2023/11/10 08:07:01;;;;;;;0.10;0.10;;;9.50;81.80;;;;;;4954941;28;20027;-79
2023/11/10 08:09:27;;;;;;;0.10;0.10;;;9.50;81.70;;;;;;4948133;29;20055;-78
2023/11/10 08:11:53;;;;;;;0.10;0.10;;;9.50;81.70;;;;;;4923918;29;20038;-78
2023/11/10 08:14:18;;;;;;;0.10;0.10;;;9.60;81.70;;;;;;4945987;28;20039;-78
2023/11/10 08:16:44;;;;;;;0.10;0.10;;;9.50;81.90;;;;;;4952359;29;20612;-79
2023/11/10 08:19:10;;;;;;;0.10;0.10;;;9.60;81.90;;;;;;4951845;29;20091;-78
2023/11/10 08:21:36;;;;;;;0.10;0.10;;;9.70;81.70;;;;;;4941303;29;20027;-79
2023/11/10 08:24:02;;;;;;;0.10;0.10;;;9.70;81.60;;;;;;4953747;28;20031;-78
2023/11/10 08:26:27;;;;;;;0.10;0.10;;;9.70;81.60;;;;;;4956895;29;20031;-77
2023/11/10 08:28:53;;;;;;;0.10;0.10;;;9.80;81.50;;;;;;4957909;29;20059;-79
2023/11/10 08:31:20;;;;;;;0.10;0.10;;;9.80;81.40;;;;;;4940826;28;20536;-78
2023/11/10 08:33:46;;;;;;;0.10;0.10;;;9.90;81.40;;;;;;4959224;29;20062;-77
2023/11/10 08:36:12;;;;;;;0.10;0.10;;;9.90;81.40;;;;;;4940048;29;20394;-77
2023/11/10 08:38:37;;;;;;;0.10;0.10;;;10.00;81.20;;;;;;4959948;29;20031;-77
2023/11/10 08:41:04;;;;;;;0.10;0.10;;;10.10;81.30;;;;;;4955074;28;20102;-78
2023/11/10 08:43:30;;;;;;;0.17;0.17;;;10.20;81.20;;;;;;4954559;29;20050;-78
2023/11/10 08:45:55;;;;;;;0.10;0.10;;;10.30;81.10;;;;;;4942089;29;20023;-78
2023/11/10 08:48:21;;;;;;;0.10;0.10;;;10.40;81.10;;;;;;4958808;29;20038;-78
2023/11/10 08:50:47;;;;;;;0.10;0.10;;;10.50;80.90;;;;;;4957114;28;20360;-78
2023/11/10 08:53:15;;;;;;;0.10;0.10;;;10.70;80.70;;;;;;4957872;29;20043;-78
2023/11/10 08:55:41;;;;;;;0.10;0.10;;;10.80;80.50;;;;;;4941244;28;20019;-78
2023/11/10 08:58:06;;;;;;;0.10;0.10;;;10.90;80.50;;;;;;4957896;29;20027;-79
2023/11/10 09:00:32;;;;;;;0.10;0.10;;;10.90;80.10;;;;;;4959069;29;20023;-78
2023/11/10 09:02:58;;;;;;;0.10;0.10;;;10.90;80.00;;;;;;4938276;28;20066;-78
2023/11/10 09:05:23;;;;;;;0.10;0.10;;;10.90;80.00;;;;;;4956641;28;20023;-78
2023/11/10 09:07:49;;;;;;;0.10;0.10;;;11.00;80.10;;;;;;4958757;29;20055;-79
2023/11/10 09:10:15;;;;;;;0.10;0.10;;;11.00;79.90;;;;;;4954136;28;20031;-78
2023/11/10 09:12:42;;;;;;;0.10;0.10;;;11.00;80.00;;;;;;4954650;28;20035;-79
2023/11/10 09:15:11;;;;;;;0.10;0.10;;;11.20;79.50;;;;;;4936403;29;20082;-78
2023/11/10 09:17:44;;;;;;;0.10;0.10;;;11.30;79.10;;;;;;4950746;29;20089;-78
2023/11/10 09:20:13;;;;;;;0.10;0.10;;;11.50;78.40;;;;;;4958014;28;20020;-78
2023/11/10 09:22:38;;;;;;;0.10;0.10;;;11.60;78.20;;;;;;4954237;29;20065;-78
2023/11/10 09:25:05;;;;;;;0.10;0.10;;;11.70;78.10;;;;;;4953744;28;20027;-78
2023/11/10 09:27:34;;;;;;;0.10;0.10;;;11.70;78.10;;;;;;4951402;29;20102;-78
2023/11/10 09:29:59;;;;;;;0.10;0.10;;;11.70;78.10;;;;;;4945577;28;20031;-78
2023/11/10 09:32:25;;;;;;;0.10;0.10;;;11.70;78.30;;;;;;4958086;29;20093;-78
2023/11/10 09:34:51;;;;;;;0.20;0.20;;;11.70;78.20;;;;;;4953165;28;21073;-77
2023/11/10 09:37:17;;;;;;;0.10;0.10;;;11.80;78.20;;;;;;4939964;29;20107;-78
2023/11/10 09:39:43;;;;;;;0.10;0.10;;;11.80;77.90;;;;;;4949701;29;20058;-78
2023/11/10 09:42:10;;;;;;;0.10;0.10;;;11.80;77.40;;;;;;4954233;29;20498;-79
2023/11/10 09:44:45;;;;;;;0.10;0.10;;;11.80;77.40;;;;;;4953547;28;20025;-78
2023/11/10 09:47:11;;;;;;;0.10;0.10;;;11.90;77.70;;;;;;4954558;28;20474;-78
2023/11/10 09:49:39;;;;;;;0.10;0.10;;;11.90;77.20;;;;;;4939679;29;20029;-78
2023/11/10 09:52:06;;;;;;;0.10;0.10;;;12.00;77.40;;;;;;4952362;28;20061;-81
2023/11/10 09:54:35;;;;;;;0.10;0.10;;;12.20;76.50;;;;;;4953487;29;20091;-87
2023/11/10 09:57:01;;;;;;;0.10;0.10;;;12.30;76.00;;;;;;4938066;28;20043;-77
2023/11/10 09:59:31;;;;;;;0.10;0.10;;;12.30;75.90;;;;;;4955056;29;20830;-77
2023/11/10 10:02:00;;;;;;;0.10;0.10;;;12.20;75.30;;;;;;4957464;29;20043;-78
2023/11/10 10:04:26;;;;;;;0.10;0.10;;;12.30;75.60;;;;;;4940292;29;20066;-77
2023/11/10 10:06:56;;;;;;;0.10;0.10;;;12.30;74.90;;;;;;4955849;28;20031;-78
2023/11/10 10:09:22;;;;;;;0.10;0.10;;;12.30;74.80;;;;;;4952310;29;20034;-77
2023/11/10 10:11:48;;;;;;;0.10;0.10;;;12.30;74.20;;;;;;4952554;28;20040;-77
2023/11/10 10:14:14;;;;;;;0.10;0.10;;;12.40;74.20;;;;;;4955711;29;20043;-78
2023/11/10 10:16:53;;;;;;;0.10;0.10;;;12.50;74.40;;;;;;4955171;29;20039;-78
2023/11/10 10:19:29;;;;;;;0.10;0.10;;;12.50;73.80;;;;;;4954889;29;20038;-78
2023/11/10 10:21:56;;;;;;;0.10;0.10;;;12.60;74.20;;;;;;4954892;28;20065;-81
2023/11/10 10:24:22;;;;;;;0.10;0.10;;;12.80;74.10;;;;;;4956874;28;20127;-81
2023/11/10 10:26:48;;;;;;;0.10;0.10;;;12.70;73.80;;;;;;4958071;29;20062;-81
2023/11/10 10:29:14;;;;;;;0.10;0.10;;;12.70;74.30;;;;;;4958078;29;20035;-81
2023/11/10 10:31:40;;;;;;;0.10;0.10;;;12.80;74.30;;;;;;4939616;28;20059;-82
2023/11/10 10:34:07;;;;;;;0.10;0.10;;;13.00;74.40;;;;;;4936390;29;20035;-82
2023/11/10 10:36:35;;;;;;;0.10;0.10;;;13.20;74.20;;;;;;4939601;29;20383;-81
2023/11/10 10:39:04;;;;;;;0.10;0.10;;;13.30;73.80;;;;;;4942210;28;20027;-81
2023/11/10 10:41:34;;;;;;;0.10;0.10;;;13.30;73.60;;;;;;4956795;29;20031;-81
2023/11/10 10:44:02;;;;;;;0.10;0.10;;;13.30;73.40;;;;;;4958127;29;20512;-82
2023/11/10 10:46:28;;;;;;;0.10;0.10;;;13.20;73.30;;;;;;4953609;29;20027;-82
2023/11/10 10:48:55;;;;;;;0.10;0.10;;;13.20;73.70;;;;;;4956725;28;20130;-81
2023/11/10 10:51:23;;;;;;;0.10;0.10;;;13.10;73.50;;;;;;4940640;29;20035;-82
2023/11/10 10:53:49;;;;;;;0.00;0.00;;;13.00;73.70;;;;;;4956620;28;20038;-81
2023/11/10 10:56:18;;;;;;;0.15;0.15;;;13.00;74.10;;;;;;4945743;29;20035;-82
2023/11/10 10:58:44;;;;;;;0.10;0.10;;;12.90;74.10;;;;;;4938729;29;20435;-81
2023/11/10 11:01:10;;;;;;;0.10;0.10;;;13.00;74.20;;;;;;4942764;28;20107;-81
2023/11/10 11:03:59;;;;;;;0.10;0.10;;;13.20;74.30;;;;;;4938403;29;20035;-82
2023/11/10 11:06:53;;;;;;;0.10;0.10;;;13.30;73.10;;;;;;4938401;29;20086;-82
2023/11/10 11:09:47;;;;;;;0.10;0.10;;;13.30;73.00;;;;;;4947093;28;20039;-86
2023/11/10 11:12:34;;;;;;;0.10;0.10;;;13.30;72.80;;;;;;4923826;29;20047;-76
2023/11/10 11:15:25;;;;;;;0.10;0.10;;;13.30;73.60;;;;;;4927858;28;20059;-81
2023/11/10 11:18:18;;;;;;;0.15;0.15;;;13.30;73.40;;;;;;4950638;29;20050;-79
2023/11/10 11:20:49;;;;;;;0.15;0.10;;;13.30;73.80;;;;;;4948919;29;20051;-79
2023/11/10 11:23:17;;;;;;;0.10;0.10;;;13.30;73.20;;;;;;4950151;29;20115;-81
2023/11/10 11:25:43;;;;;;;0.10;0.10;;;13.20;72.80;;;;;;4954248;29;20394;-81
2023/11/10 11:28:09;;;;;;;0.10;0.10;;;13.20;72.70;;;;;;4942479;29;20086;-76
2023/11/10 11:30:36;;;;;;;0.10;0.10;;;13.40;72.70;;;;;;4950726;29;20519;-83
2023/11/10 11:33:07;;;;;;;0.10;0.10;;;13.50;72.20;;;;;;4943833;29;20038;-82
2023/11/10 11:35:46;;;;;;;0.10;0.10;;;13.40;72.10;;;;;;4925369;29;20024;-76
2023/11/10 11:38:26;;;;;;;0.10;0.10;;;13.40;72.70;;;;;;4941582;29;20031;-84
2023/11/10 11:40:59;;;;;;;0.10;0.10;;;13.50;72.70;;;;;;4953323;29;20090;-83
2023/11/10 11:43:25;;;;;;;0.20;0.20;;;13.50;72.50;;;;;;4960017;28;20058;-86
2023/11/10 11:45:57;;;;;;;0.10;0.10;;;13.50;72.10;;;;;;4961549;29;20031;-85
2023/11/10 11:48:23;;;;;;;0.10;0.10;;;13.60;72.50;;;;;;4961504;29;20107;-83
2023/11/10 11:50:53;;;;;;;0.10;0.10;;;13.70;71.60;;;;;;4945698;28;20051;-84
2023/11/10 11:53:22;;;;;;;0.10;0.10;;;13.60;71.50;;;;;;4942163;28;20040;-82
2023/11/10 11:55:52;;;;;;;0.10;0.10;;;13.60;71.10;;;;;;4951204;29;20019;-83
2023/11/10 11:58:19;;;;;;;0.10;0.10;;;13.80;71.10;;;;;;4949597;29;20028;-80
2023/11/10 12:00:46;;;;;;;0.10;0.10;;;13.80;71.30;;;;;;4941828;29;20030;-81
2023/11/10 12:03:13;;;;;;;0.10;0.10;;;13.80;71.50;;;;;;4959870;28;20027;-83
2023/11/10 12:05:45;;;;;;;0.10;0.10;;;13.80;71.80;;;;;;4961028;29;20079;-85
2023/11/10 12:08:11;;;;;;;0.10;0.10;;;13.70;72.50;;;;;;4943083;29;20037;-85
2023/11/10 12:10:38;;;;;;;0.10;0.10;;;13.60;73.80;;;;;;4959218;29;20031;-87
2023/11/10 12:13:06;;;;;;;0.10;0.10;;;13.50;74.80;;;;;;4951117;29;20028;-81
2023/11/10 12:15:35;;;;;;;0.10;0.10;;;13.30;76.20;;;;;;4950843;28;20110;-86
2023/11/10 12:18:01;;;;;;;0.10;0.10;;;13.20;77.20;;;;;;4954608;29;20082;-85
2023/11/10 12:20:30;;;;;;;0.10;0.10;;;13.10;77.70;;;;;;4945883;28;20035;-86
2023/11/10 12:22:57;;;;;;;0.10;0.10;;;13.00;78.50;;;;;;4947415;28;20027;-84
2023/11/10 12:25:26;;;;;;;0.10;0.10;;;12.90;78.80;;;;;;4949928;29;20035;-87
2023/11/10 12:27:53;;;;;;;0.10;0.10;;;12.90;79.20;;;;;;4949650;29;20015;-82
2023/11/10 12:30:20;;;;;;;0.10;0.10;;;12.80;79.70;;;;;;4951086;28;20156;-84
2023/11/10 12:32:48;;;;;;;0.10;0.10;;;12.60;80.20;;;;;;4934588;29;20438;-86
2023/11/10 12:35:14;;;;;;;0.10;0.10;;;12.60;80.60;;;;;;4949716;29;20032;-87
2023/11/10 12:37:40;;;;;;;0.10;0.10;;;12.50;80.40;;;;;;4951803;28;20024;-85
2023/11/10 12:40:13;;;;;;;0.10;0.10;;;12.40;80.80;;;;;;4955334;28;20034;-87
2023/11/10 12:42:39;;;;;;;0.10;0.10;;;12.30;81.10;;;;;;4953833;28;20055;-86
2023/11/10 12:45:10;;;;;;;0.10;0.10;;;12.30;81.40;;;;;;4954288;29;20634;-85
2023/11/10 12:47:36;;;;;;;0.10;0.10;;;12.30;81.10;;;;;;4949565;28;20039;-85
2023/11/10 12:50:16;;;;;;;0.10;0.10;;;12.20;81.20;;;;;;4942252;29;20023;-84
2023/11/10 12:52:51;;;;;;;0.10;0.10;;;12.20;81.30;;;;;;4949638;28;20077;-82
2023/11/10 12:55:20;;;;;;;0.10;0.10;;;12.30;80.80;;;;;;4940521;29;20086;-83
2023/11/10 12:57:47;;;;;;;0.10;0.10;;;12.50;80.70;;;;;;4956653;29;20062;-82
2023/11/10 13:00:17;;;;;;;0.10;0.10;;;12.70;79.90;;;;;;4953701;28;20031;-81
2023/11/10 13:02:43;;;;;;;0.10;0.10;;;12.70;79.20;;;;;;4947925;29;20015;-82
2023/11/10 13:05:19;;;;;;;0.10;0.10;;;12.80;79.00;;;;;;4950850;29;20022;-81
2023/11/10 13:07:45;;;;;;;0.10;0.10;;;12.90;78.90;;;;;;4951458;28;20042;-82
2023/11/10 13:10:11;;;;;;;0.10;0.10;;;13.00;78.20;;;;;;4941317;29;20027;-80
2023/11/10 13:12:45;;;;;;;0.15;0.15;;;13.10;78.20;;;;;;4953819;29;20040;-82
2023/11/10 13:15:11;;;;;;;0.10;0.10;;;13.20;77.90;;;;;;4954248;28;20027;-82
2023/11/10 13:17:36;;;;;;;0.10;0.10;;;13.30;77.20;;;;;;4947845;29;20079;-81
2023/11/10 13:20:05;;;;;;;0.20;0.20;;;13.60;77.00;;;;;;4954840;29;20470;-83
2023/11/10 13:22:34;;;;;;;0.10;0.10;;;13.70;76.60;;;;;;4935809;29;20029;-82
2023/11/10 13:25:05;;;;;;;0.10;0.10;;;13.70;76.00;;;;;;4957643;28;20030;-79
2023/11/10 13:27:31;;;;;;;0.10;0.10;;;13.50;75.30;;;;;;4956846;29;20035;-84
2023/11/10 13:29:59;;;;;;;0.10;0.10;;;13.40;76.00;;;;;;4940391;29;20027;-82
2023/11/10 13:32:28;;;;;;;0.10;0.10;;;13.30;76.30;;;;;;4957411;29;20437;-80
2023/11/10 13:34:55;;;;;;;0.10;0.10;;;13.20;76.40;;;;;;4954909;28;20032;-78
2023/11/10 13:37:20;;;;;;;0.10;0.10;;;13.20;76.30;;;;;;4955928;29;20047;-81
2023/11/10 13:39:46;;;;;;;0.10;0.10;;;13.20;75.00;;;;;;4958462;29;20083;-83
2023/11/10 13:42:13;;;;;;;0.10;0.10;;;13.20;74.40;;;;;;4955466;28;20038;-85
2023/11/10 13:44:39;;;;;;;0.10;0.10;;;13.30;74.30;;;;;;4957613;29;20023;-84
2023/11/10 13:47:06;;;;;;;0.10;0.10;;;13.30;73.60;;;;;;4940078;29;20510;-90
2023/11/10 13:49:31;;;;;;;0.10;0.10;;;13.30;73.70;;;;;;4955287;28;20027;-84
2023/11/10 13:51:58;;;;;;;0.10;0.10;;;13.40;73.00;;;;;;4938612;29;20023;-90
2023/11/10 13:54:30;;;;;;;0.10;0.10;;;13.50;72.10;;;;;;4952595;29;20062;-83
2023/11/10 13:56:56;;;;;;;0.10;0.10;;;13.50;72.10;;;;;;4953416;29;20027;-79
2023/11/10 13:59:23;;;;;;;0.10;0.10;;;13.60;71.90;;;;;;4953366;29;20074;-79
2023/11/10 14:01:49;;;;;;;0.10;0.10;;;13.80;71.40;;;;;;4955802;28;20026;-86
2023/11/10 14:04:22;;;;;;;0.10;0.10;;;14.00;70.70;;;;;;4957339;29;20090;-82
2023/11/10 14:06:50;;;;;;;0.10;0.10;;;14.10;70.10;;;;;;4955945;28;20051;-81
2023/11/10 14:09:16;;;;;;;0.10;0.10;;;14.30;70.00;;;;;;4954728;29;20036;-82
2023/11/10 14:11:42;;;;;;;0.10;0.10;;;14.10;69.60;;;;;;4950722;28;20083;-82
2023/11/10 14:14:08;;;;;;;0.10;0.10;;;14.00;70.70;;;;;;4956313;29;20114;-83
2023/11/10 14:16:35;;;;;;;0.10;0.10;;;13.90;70.40;;;;;;4953873;28;20028;-82
2023/11/10 14:19:05;;;;;;;0.10;0.10;;;13.80;70.30;;;;;;4957562;29;20471;-82
2023/11/10 14:21:31;;;;;;;0.10;0.10;;;13.70;71.20;;;;;;4935632;29;20038;-83
2023/11/10 14:23:57;;;;;;;0.10;0.10;;;13.60;71.60;;;;;;4939451;29;20019;-83
2023/11/10 14:26:24;;;;;;;0.10;0.10;;;13.60;71.40;;;;;;4950647;28;20035;-82
2023/11/10 14:28:53;;;;;;;0.10;0.10;;;13.60;71.70;;;;;;4955933;29;20031;-83
2023/11/10 14:31:19;;;;;;;0.10;0.10;;;13.50;71.80;;;;;;4953370;28;20514;-82
2023/11/10 14:33:46;;;;;;;0.10;0.10;;;13.50;72.00;;;;;;4956113;29;20106;-83
2023/11/10 14:36:13;;;;;;;0.10;0.10;;;13.50;72.20;;;;;;4958630;29;20031;-83
2023/11/10 14:38:40;;;;;;;0.10;0.10;;;13.60;71.90;;;;;;4956558;28;20482;-82
2023/11/10 14:41:06;;;;;;;0.10;0.10;;;13.80;71.60;;;;;;4957478;29;20402;-85
2023/11/10 14:43:32;;;;;;;0.10;0.10;;;13.90;70.50;;;;;;4954665;29;20478;-82
2023/11/10 14:45:57;;;;;;;0.10;0.10;;;14.00;69.80;;;;;;4951372;29;20053;-83
2023/11/10 14:48:24;;;;;;;0.20;0.10;;;14.00;69.80;;;;;;4956202;28;20417;-83
2023/11/10 14:50:51;;;;;;;0.10;0.10;;;14.00;70.10;;;;;;4956171;29;20544;-83
2023/11/10 14:53:22;;;;;;;0.10;0.10;;;14.00;69.90;;;;;;4953875;29;20032;-82
2023/11/10 14:55:48;;;;;;;0.10;0.10;;;13.90;69.30;;;;;;4954563;28;20079;-82
2023/11/10 14:58:14;;;;;;;0.10;0.10;;;13.70;69.80;;;;;;4953927;29;20023;-82
2023/11/10 15:00:43;;;;;;;0.10;0.10;;;13.60;70.00;;;;;;4940511;29;20090;-82
2023/11/10 15:03:09;;;;;;;0.10;0.10;;;13.60;70.10;;;;;;4955548;28;20023;-82
2023/11/10 15:05:36;;;;;;;0.10;0.10;;;13.50;70.70;;;;;;4957508;28;20504;-83
2023/11/10 15:08:04;;;;;;;0.10;0.10;;;13.30;70.40;;;;;;4941672;29;20486;-82
2023/11/10 15:10:35;;;;;;;0.10;0.10;;;13.20;70.80;;;;;;4960084;29;20050;-82
2023/11/10 15:13:01;;;;;;;0.10;0.10;;;13.10;70.40;;;;;;4959716;28;20024;-83
2023/11/10 15:15:27;;;;;;;0.10;0.10;;;13.20;70.60;;;;;;4941589;29;20470;-83
2023/11/10 15:17:52;;;;;;;0.10;0.10;;;13.10;70.90;;;;;;4959083;29;20097;-83
2023/11/10 15:20:18;;;;;;;0.10;0.10;;;13.10;71.00;;;;;;4956934;28;20120;-86
2023/11/10 15:22:44;;;;;;;0.10;0.10;;;13.10;71.00;;;;;;4959170;28;20019;-84
2023/11/10 15:25:10;;;;;;;0.10;0.10;;;13.00;70.10;;;;;;4953799;29;20074;-82
2023/11/10 15:27:36;;;;;;;0.10;0.10;;;13.00;70.40;;;;;;4943305;29;20024;-87
2023/11/10 15:30:04;;;;;;;0.10;0.10;;;13.00;70.50;;;;;;4955557;28;20042;-86
2023/11/10 15:32:30;;;;;;;0.10;0.10;;;13.00;70.50;;;;;;4958581;29;20047;-80
2023/11/10 15:34:57;;;;;;;0.10;0.10;;;12.90;69.50;;;;;;4936077;29;20027;-81
2023/11/10 15:37:24;;;;;;;0.10;0.10;;;12.80;70.10;;;;;;4957113;28;20055;-81
2023/11/10 15:39:50;;;;;;;0.10;0.10;;;12.80;70.60;;;;;;4958423;29;20027;-81
2023/11/10 15:42:16;;;;;;;0.10;0.10;;;12.70;70.50;;;;;;4957432;29;20401;-80
2023/11/10 15:44:45;;;;;;;0.10;0.10;;;12.60;71.10;;;;;;4955643;28;20032;-81
2023/11/10 15:47:11;;;;;;;0.10;0.10;;;12.60;71.50;;;;;;4955408;29;20082;-80
2023/11/10 15:49:37;;;;;;;0.10;0.10;;;12.50;71.60;;;;;;4958980;28;20030;-81
2023/11/10 15:52:03;;;;;;;0.10;0.10;;;12.50;72.20;;;;;;4957900;29;20860;-81
2023/11/10 15:54:29;;;;;;;0.20;0.10;;;12.60;72.50;;;;;;4960073;29;20031;-81
2023/11/10 15:56:57;;;;;;;0.10;0.10;;;12.60;72.60;;;;;;4953199;29;20043;-81
2023/11/10 15:59:22;;;;;;;0.10;0.10;;;12.60;72.00;;;;;;4953348;28;20027;-81
2023/11/10 16:01:48;;;;;;;0.10;0.10;;;12.60;72.40;;;;;;4954597;29;20106;-81
2023/11/10 16:04:13;;;;;;;0.10;0.10;;;12.60;72.90;;;;;;4945185;29;20035;-82
2023/11/10 16:06:39;;;;;;;0.10;0.10;;;12.60;73.00;;;;;;4945514;28;20141;-80
2023/11/10 16:09:07;;;;;;;0.10;0.10;;;12.70;72.60;;;;;;4942637;29;20027;-81
2023/11/10 16:11:33;;;;;;;0.10;0.10;;;12.60;72.90;;;;;;4964553;28;20082;-81
2023/11/10 16:13:58;;;;;;;0.10;0.10;;;12.60;72.40;;;;;;4942593;29;20019;-81
2023/11/10 16:16:26;;;;;;;0.10;0.10;;;12.50;72.50;;;;;;4958268;29;20027;-81
2023/11/10 16:18:51;;;;;;;0.10;0.10;;;12.50;72.80;;;;;;4954873;28;20078;-81
2023/11/10 16:21:17;;;;;;;0.10;0.10;;;12.30;72.80;;;;;;4951162;28;20027;-81
2023/11/10 16:23:43;;;;;;;0.10;0.10;;;12.30;72.70;;;;;;4955364;28;20075;-81
2023/11/10 16:26:08;;;;;;;0.10;0.10;;;12.20;72.60;;;;;;4958694;29;20023;-81
2023/11/10 16:28:35;;;;;;;0.10;0.10;;;12.20;73.10;;;;;;4951365;28;20610;-80
2023/11/10 16:31:02;;;;;;;0.10;0.10;;;12.10;73.00;;;;;;4935965;29;20617;-81
2023/11/10 16:33:29;;;;;;;0.03;0.03;;;12.10;73.40;;;;;;4958093;28;20031;-83
2023/11/10 16:35:55;;;;;;;0.10;0.10;;;12.00;73.30;;;;;;4955342;29;20024;-82
2023/11/10 16:38:21;;;;;;;0.10;0.10;;;12.00;73.50;;;;;;4921446;29;20027;-81
2023/11/10 16:40:47;;;;;;;0.10;0.10;;;12.00;73.30;;;;;;4943847;28;20873;-81
2023/11/10 16:43:13;;;;;;;0.10;0.10;;;12.00;73.50;;;;;;4958611;29;20027;-81
2023/11/10 16:45:39;;;;;;;0.10;0.10;;;12.00;73.40;;;;;;4952158;29;20043;-82
2023/11/10 16:48:05;;;;;;;0.10;0.10;;;12.00;73.30;;;;;;4942168;29;20016;-82
2023/11/10 16:50:31;;;;;;;0.10;0.10;;;12.10;73.60;;;;;;4948717;28;20035;-82
2023/11/10 16:52:57;;;;;;;0.10;0.10;;;12.10;73.70;;;;;;4942849;29;20027;-82
2023/11/10 16:55:23;;;;;;;0.10;0.10;;;12.10;73.60;;;;;;4936016;29;20042;-81
2023/11/10 16:57:52;;;;;;;0.10;0.10;;;12.10;73.80;;;;;;4939234;29;20066;-82
2023/11/10 17:00:19;;;;;;;0.00;0.00;;;12.10;74.00;;;;;;4958387;28;20028;-81
2023/11/10 17:02:45;;;;;;;0.10;0.10;;;12.20;74.20;;;;;;4956793;29;20386;-82
2023/11/10 17:05:16;;;;;;;0.10;0.10;;;12.10;74.30;;;;;;4947566;28;20047;-77
2023/11/10 17:07:41;;;;;;;0.10;0.10;;;12.20;74.40;;;;;;4951278;29;20549;-81
2023/11/10 17:10:07;;;;;;;0.10;0.10;;;12.10;74.20;;;;;;4953353;29;20379;-76
2023/11/10 17:12:33;;;;;;;0.05;0.05;;;12.10;74.70;;;;;;4958393;28;20023;-76
2023/11/10 17:15:02;;;;;;;0.10;0.10;;;12.00;74.80;;;;;;4957376;29;20023;-76
2023/11/10 17:17:28;;;;;;;0.10;0.10;;;12.00;75.20;;;;;;4957376;29;20023;-76
2023/11/10 17:19:53;;;;;;;0.00;0.00;;;11.90;75.10;;;;;;4956569;28;20027;-76
2023/11/10 17:22:19;;;;;;;0.10;0.10;;;11.90;74.80;;;;;;4959011;29;20023;-76
2023/11/10 17:24:45;;;;;;;0.10;0.10;;;11.80;75.20;;;;;;4957487;28;20035;-76
2023/11/10 17:27:11;;;;;;;0.10;0.10;;;11.80;75.10;;;;;;4958176;29;20019;-76
2023/11/10 17:29:39;;;;;;;0.00;0.00;;;11.70;75.10;;;;;;4958285;29;20553;-76
2023/11/10 17:32:05;;;;;;;0.10;0.10;;;11.70;75.10;;;;;;4956000;28;20055;-74
2023/11/10 17:34:31;;;;;;;0.10;0.10;;;11.60;75.20;;;;;;4958059;29;20038;-75
2023/11/10 17:36:59;;;;;;;0.00;0.00;;;11.60;75.00;;;;;;4956902;29;20102;-75
2023/11/10 17:39:25;;;;;;;0.10;0.10;;;11.70;75.40;;;;;;4958712;29;20367;-77
2023/11/10 17:41:51;;;;;;;0.10;0.10;;;11.70;75.30;;;;;;4957503;28;20027;-80
2023/11/10 17:44:16;;;;;;;0.10;0.10;;;11.80;75.40;;;;;;4958241;29;20382;-80
2023/11/10 17:46:42;;;;;;;0.08;0.08;;;11.70;75.00;;;;;;4949118;28;20024;-87
2023/11/10 17:49:09;;;;;;;0.10;0.10;;;11.80;75.00;;;;;;4958736;29;20028;-76
2023/11/10 17:51:35;;;;;;;0.10;0.10;;;11.70;75.00;;;;;;4941560;29;20498;-78
2023/11/10 17:54:01;;;;;;;0.10;0.10;;;11.70;75.50;;;;;;4950200;29;20051;-77
2023/11/10 17:56:27;;;;;;;0.10;0.10;;;11.70;75.30;;;;;;4936881;28;20027;-77
2023/11/10 17:58:52;;;;;;;0.10;0.10;;;11.60;75.70;;;;;;4947029;28;20054;-78
2023/11/10 18:01:20;;;;;;;0.10;0.10;;;11.60;75.70;;;;;;4958902;29;20031;-78
2023/11/10 18:03:45;;;;;;;0.10;0.10;;;11.60;75.80;;;;;;4959021;29;20019;-84
2023/11/10 18:06:11;;;;;;;0.10;0.10;;;11.50;75.80;;;;;;4957246;28;20062;-76
2023/11/10 18:08:39;;;;;;;0.10;0.10;;;11.40;76.10;;;;;;4957729;29;20030;-77
2023/11/10 18:11:05;;;;;;;0.10;0.10;;;11.30;76.50;;;;;;4957820;28;20482;-76
2023/11/10 18:13:31;;;;;;;0.10;0.10;;;11.30;76.80;;;;;;4958722;29;20105;-80
2023/11/10 18:16:00;;;;;;;0.10;0.10;;;11.20;76.80;;;;;;4957510;29;20117;-86
2023/11/10 18:18:25;;;;;;;0.10;0.10;;;11.20;77.10;;;;;;4957609;29;20446;-84
2023/11/10 18:20:51;;;;;;;0.10;0.10;;;11.20;76.80;;;;;;4956721;28;20085;-78